createdAt,value
2018-07-20T00:00:20.420Z,67.61
2018-07-20T00:02:48.576Z,67.59
2018-07-20T00:05:16.683Z,67.96
2018-07-20T00:07:44.784Z,68.15
2018-07-20T00:10:12.900Z,68.36
2018-07-20T00:12:41.037Z,68.66
2018-07-20T00:15:09.216Z,69.22
2018-07-20T00:17:37.348Z,69.35
2018-07-20T00:20:05.912Z,69.48
2018-07-20T00:22:34.104Z,70.17
2018-07-20T00:25:02.248Z,70.26
2018-07-20T00:27:30.373Z,70.81
2018-07-20T00:29:58.512Z,71.15
2018-07-20T00:32:26.673Z,71.17
2018-07-20T00:34:54.829Z,70.82
2018-07-20T00:37:22.957Z,70.83
2018-07-20T00:39:51.080Z,69.48
2018-07-20T00:42:19.194Z,69.68
2018-07-20T00:44:47.341Z,69.99
2018-07-20T00:47:15.464Z,70.08
2018-07-20T00:49:43.549Z,70.26
2018-07-20T00:52:11.672Z,70.03
2018-07-20T00:54:39.825Z,69.86
2018-07-20T00:57:07.948Z,69.49
2018-07-20T00:59:36.045Z,69.97
2018-07-20T01:02:04.189Z,68.35
2018-07-20T01:04:32.333Z,70.21
2018-07-20T01:07:00.464Z,70.43
2018-07-20T01:09:28.600Z,70.56
2018-07-20T01:11:56.720Z,70.44
2018-07-20T01:14:24.856Z,70.35
2018-07-20T01:16:52.988Z,70.18
2018-07-20T01:19:21.136Z,70.84
2018-07-20T01:21:49.272Z,70.43
2018-07-20T01:24:17.409Z,70.70
2018-07-20T01:26:45.582Z,70.58
2018-07-20T01:29:13.688Z,71.04
2018-07-20T01:31:41.796Z,70.81
2018-07-20T01:34:10.016Z,71.24
2018-07-20T01:36:38.116Z,72.43
2018-07-20T01:39:06.898Z,73.33
2018-07-20T01:41:34.975Z,73.54
2018-07-20T01:44:03.120Z,72.89
2018-07-20T01:46:31.331Z,72.94
2018-07-20T01:48:59.454Z,72.12
2018-07-20T01:51:27.588Z,72.24
2018-07-20T01:53:55.730Z,71.83
2018-07-20T01:56:23.872Z,72.22
2018-07-20T01:58:52.036Z,72.12
2018-07-20T02:01:20.157Z,72.02
2018-07-20T02:03:48.309Z,72.27
2018-07-20T02:06:16.450Z,72.76
2018-07-20T02:08:44.593Z,73.18
2018-07-20T02:11:12.728Z,73.23
2018-07-20T02:13:40.877Z,73.65
2018-07-20T02:16:08.987Z,73.10
2018-07-20T02:18:37.152Z,73.40
2018-07-20T02:21:05.311Z,73.54
2018-07-20T02:23:33.432Z,73.47
2018-07-20T02:26:01.603Z,73.18
2018-07-20T02:28:29.740Z,73.54
2018-07-20T02:30:58.325Z,74.24
2018-07-20T02:33:26.532Z,74.20
2018-07-20T02:35:54.683Z,74.86
2018-07-20T02:38:22.794Z,74.73
2018-07-20T02:40:50.941Z,75.07
2018-07-20T02:43:19.132Z,74.23
2018-07-20T02:45:47.264Z,74.62
2018-07-20T02:48:15.395Z,74.90
2018-07-20T02:50:43.528Z,74.36
2018-07-20T02:53:12.382Z,74.35
2018-07-20T02:55:40.512Z,73.73
2018-07-20T02:58:08.637Z,74.82
2018-07-20T03:00:36.747Z,74.11
2018-07-20T03:03:04.985Z,74.12
2018-07-20T03:05:33.096Z,75.28
2018-07-20T03:08:01.201Z,74.51
2018-07-20T03:10:29.365Z,75.28
2018-07-20T03:12:57.478Z,75.05
2018-07-20T03:15:25.589Z,75.32
2018-07-20T03:17:53.696Z,74.98
2018-07-20T03:20:21.803Z,75.45
2018-07-20T03:22:49.899Z,75.21
2018-07-20T03:25:18.004Z,75.96
2018-07-20T03:27:46.176Z,75.31
2018-07-20T03:30:14.334Z,75.57
2018-07-20T03:32:42.500Z,75.39
2018-07-20T03:35:10.605Z,75.05
2018-07-20T03:37:38.751Z,75.12
2018-07-20T03:40:06.934Z,75.26
2018-07-20T03:42:35.073Z,75.09
2018-07-20T03:45:03.200Z,75.64
2018-07-20T03:47:31.312Z,75.26
2018-07-20T03:49:59.410Z,75.12
2018-07-20T03:52:27.588Z,75.10
2018-07-20T03:54:55.696Z,74.27
2018-07-20T03:57:23.882Z,75.10
2018-07-20T03:59:52.188Z,75.49
2018-07-20T04:02:20.405Z,75.75
2018-07-20T04:04:48.513Z,75.64
2018-07-20T04:07:16.678Z,75.39
2018-07-20T04:09:44.804Z,75.45
2018-07-20T04:12:12.988Z,74.85
2018-07-20T04:14:41.156Z,75.65
2018-07-20T04:17:09.306Z,74.86
2018-07-20T04:19:37.474Z,75.50
2018-07-20T04:22:05.596Z,75.15
2018-07-20T04:24:33.747Z,73.99
2018-07-20T04:27:01.865Z,74.48
2018-07-20T04:29:30.093Z,74.51
2018-07-20T04:31:58.247Z,75.57
2018-07-20T04:34:26.382Z,75.21
2018-07-20T04:36:54.504Z,75.49
2018-07-20T04:39:22.711Z,74.91
2018-07-20T04:41:50.841Z,74.83
2018-07-20T04:44:19.013Z,73.57
2018-07-20T04:46:47.137Z,73.22
2018-07-20T04:49:15.332Z,72.66
2018-07-20T04:51:43.448Z,71.79
2018-07-20T04:54:11.610Z,72.54
2018-07-20T04:56:39.724Z,71.43
2018-07-20T04:59:07.844Z,69.83
2018-07-20T05:01:35.988Z,69.08
2018-07-20T05:04:04.106Z,69.68
2018-07-20T05:06:32.243Z,70.36
2018-07-20T05:09:00.353Z,69.99
2018-07-20T05:11:28.474Z,70.02
2018-07-20T05:13:56.576Z,70.28
2018-07-20T05:16:24.693Z,70.89
2018-07-20T05:18:52.787Z,70.59
2018-07-20T05:21:20.915Z,71.08
2018-07-20T05:23:49.020Z,69.32
2018-07-20T05:26:17.088Z,65.54
2018-07-20T05:28:45.219Z,61.80
2018-07-20T05:31:13.455Z,61.04
2018-07-20T05:33:41.568Z,61.51
2018-07-20T05:36:09.700Z,63.79
2018-07-20T05:38:37.822Z,62.79
2018-07-20T05:41:06.074Z,63.50
2018-07-20T05:43:34.183Z,61.10
2018-07-20T05:46:02.292Z,56.14
2018-07-20T05:48:30.392Z,53.66
2018-07-20T05:50:58.518Z,52.97
2018-07-20T05:53:26.640Z,53.11
2018-07-20T05:55:54.733Z,52.22
2018-07-20T05:58:22.842Z,50.58
2018-07-20T06:00:50.917Z,49.36
2018-07-20T06:03:19.066Z,49.44
2018-07-20T06:05:47.196Z,49.27
2018-07-20T06:08:15.309Z,50.00
2018-07-20T06:10:43.439Z,50.75
2018-07-20T06:13:11.574Z,50.76
2018-07-20T06:15:39.785Z,49.77
2018-07-20T06:18:07.891Z,48.00
2018-07-20T06:20:36.047Z,44.36
2018-07-20T06:23:04.146Z,44.78
2018-07-20T06:25:32.262Z,43.39
2018-07-20T06:28:01.155Z,42.63
2018-07-20T06:30:29.299Z,42.46
2018-07-20T06:32:57.403Z,42.72
2018-07-20T06:35:25.510Z,41.75
2018-07-20T06:37:53.636Z,42.61
2018-07-20T06:40:21.757Z,42.96
2018-07-20T06:42:49.882Z,41.08
2018-07-20T06:45:17.968Z,40.55
2018-07-20T06:47:46.051Z,35.60
2018-07-20T06:50:17.196Z,37.52
2018-07-20T06:52:46.325Z,36.30
2018-07-20T06:55:14.492Z,32.03
2018-07-20T06:57:42.653Z,33.68
2018-07-20T07:00:11.034Z,34.51
2018-07-20T07:02:39.218Z,32.24
2018-07-20T07:05:08.332Z,34.28
2018-07-20T07:07:36.594Z,32.79
2018-07-20T07:10:05.222Z,31.96
2018-07-20T07:12:33.314Z,33.85
2018-07-20T07:15:01.460Z,34.92
2018-07-20T07:17:29.544Z,34.61
2018-07-20T07:19:57.656Z,34.57
2018-07-20T07:22:25.773Z,35.49
2018-07-20T07:24:53.875Z,35.53
2018-07-20T07:27:22.042Z,35.30
2018-07-20T07:29:50.179Z,35.50
2018-07-20T07:32:18.312Z,35.98
2018-07-20T07:34:46.453Z,35.25
2018-07-20T07:37:14.780Z,35.15
2018-07-20T07:39:42.888Z,34.79
2018-07-20T07:42:11.066Z,35.03
2018-07-20T07:44:39.111Z,34.35
2018-07-20T07:47:07.235Z,33.70
2018-07-20T07:49:35.364Z,31.17
2018-07-20T07:52:03.475Z,32.49
2018-07-20T07:54:31.600Z,31.33
2018-07-20T07:56:59.728Z,31.83
2018-07-20T07:59:27.836Z,34.27
2018-07-20T08:01:55.982Z,34.30
2018-07-20T08:04:24.108Z,35.41
2018-07-20T08:06:52.212Z,34.01
2018-07-20T08:09:20.313Z,35.51
2018-07-20T08:11:48.428Z,35.06
2018-07-20T08:14:16.509Z,33.65
2018-07-20T08:16:44.598Z,32.73
2018-07-20T08:19:12.700Z,33.95
2018-07-20T08:21:40.938Z,34.57
2018-07-20T08:24:09.076Z,34.56
2018-07-20T08:26:37.220Z,34.60
2018-07-20T08:29:05.521Z,34.17
2018-07-20T08:31:33.667Z,32.63
2018-07-20T08:34:01.776Z,34.27
2018-07-20T08:36:29.897Z,35.14
2018-07-20T08:38:58.030Z,31.87
2018-07-20T08:41:26.124Z,31.81
2018-07-20T08:43:54.283Z,32.87
2018-07-20T08:46:22.379Z,31.99
2018-07-20T08:48:50.514Z,32.13
2018-07-20T08:51:18.636Z,33.11
2018-07-20T08:53:46.723Z,33.03
2018-07-20T08:56:14.829Z,30.51
2018-07-20T08:58:42.960Z,31.68
2018-07-20T09:01:11.029Z,32.59
2018-07-20T09:03:39.221Z,32.31
2018-07-20T09:06:07.348Z,31.50
2018-07-20T09:08:35.452Z,32.93
2018-07-20T09:11:03.604Z,32.23
2018-07-20T09:13:31.771Z,32.58
2018-07-20T09:15:59.900Z,33.52
2018-07-20T09:18:28.037Z,31.91
2018-07-20T09:20:56.234Z,32.67
2018-07-20T09:23:24.362Z,32.72
2018-07-20T09:25:52.490Z,31.67
2018-07-20T09:28:20.618Z,31.12
2018-07-20T09:30:48.769Z,31.33
2018-07-20T09:33:16.924Z,30.50
2018-07-20T09:35:45.049Z,32.11
2018-07-20T09:38:13.208Z,32.91
2018-07-20T09:40:41.328Z,33.29
2018-07-20T09:43:09.821Z,31.58
2018-07-20T09:45:37.914Z,32.75
2018-07-20T09:48:06.081Z,33.66
2018-07-20T09:50:34.233Z,33.57
2018-07-20T09:53:02.362Z,30.75
2018-07-20T09:55:30.500Z,30.78
2018-07-20T09:57:58.635Z,32.73
2018-07-20T10:00:32.108Z,31.52
2018-07-20T10:03:00.193Z,33.01
2018-07-20T10:05:28.352Z,33.12
2018-07-20T10:07:56.601Z,32.49
2018-07-20T10:10:24.815Z,33.36
2018-07-20T10:12:52.931Z,34.60
2018-07-20T10:15:21.086Z,30.61
2018-07-20T10:17:49.207Z,30.81
2018-07-20T10:20:17.323Z,31.54
2018-07-20T10:22:45.448Z,32.84
2018-07-20T10:25:13.538Z,31.63
2018-07-20T10:30:09.773Z,31.69
2018-07-20T10:32:37.873Z,33.19
2018-07-20T10:35:06.104Z,32.26
2018-07-20T10:37:34.253Z,32.39
2018-07-20T10:40:02.399Z,33.17
2018-07-20T10:42:30.523Z,32.27
2018-07-20T10:44:58.681Z,31.89
2018-07-20T10:47:26.816Z,31.08
2018-07-20T10:49:54.929Z,31.97
2018-07-20T10:52:23.040Z,31.89
2018-07-20T10:54:51.169Z,31.73
2018-07-20T10:57:19.631Z,31.67
2018-07-20T10:59:48.152Z,30.96
2018-07-20T11:02:16.285Z,31.01
2018-07-20T11:04:44.755Z,32.56
2018-07-20T11:07:12.883Z,31.98
2018-07-20T11:09:40.997Z,31.78
2018-07-20T11:12:09.138Z,32.21
2018-07-20T11:14:37.319Z,32.38
2018-07-20T11:17:05.572Z,32.70
2018-07-20T11:19:33.669Z,32.50
2018-07-20T11:22:01.754Z,31.04
2018-07-20T11:24:29.932Z,30.97
2018-07-20T11:26:58.124Z,32.01
2018-07-20T11:29:26.235Z,32.22
2018-07-20T11:31:54.352Z,31.74
2018-07-20T11:34:22.497Z,29.66
2018-07-20T11:36:50.717Z,29.65
2018-07-20T11:39:18.836Z,30.88
2018-07-20T11:41:46.957Z,31.06
2018-07-20T11:44:15.116Z,28.92
2018-07-20T11:46:43.225Z,29.49
2018-07-20T11:49:11.349Z,30.37
2018-07-20T11:51:39.509Z,30.08
2018-07-20T11:54:07.688Z,30.01
2018-07-20T11:56:35.828Z,30.40
2018-07-20T11:59:03.990Z,30.39
2018-07-20T12:01:32.132Z,30.46
2018-07-20T12:04:00.280Z,31.53
2018-07-20T12:06:28.425Z,32.24
2018-07-20T12:08:56.571Z,31.73
2018-07-20T12:11:24.726Z,31.17
2018-07-20T12:13:52.859Z,30.71
2018-07-20T12:16:21.028Z,31.22
2018-07-20T12:18:49.192Z,31.47
2018-07-20T12:21:17.340Z,30.69
2018-07-20T12:23:45.569Z,29.04
2018-07-20T12:26:13.708Z,30.67
2018-07-20T12:28:41.965Z,29.60
2018-07-20T12:31:10.066Z,27.92
2018-07-20T12:33:38.205Z,28.54
2018-07-20T12:36:06.455Z,28.17
2018-07-20T12:38:34.532Z,29.93
2018-07-20T12:41:02.681Z,28.98
2018-07-20T12:43:30.829Z,28.92
2018-07-20T12:45:58.974Z,30.30
2018-07-20T12:48:27.085Z,29.23
2018-07-20T12:50:55.172Z,30.15
2018-07-20T12:53:23.272Z,29.92
2018-07-20T12:55:51.380Z,31.50
2018-07-20T12:58:19.512Z,29.74
2018-07-20T13:00:47.648Z,29.75
2018-07-20T13:03:15.756Z,29.97
2018-07-20T13:05:43.931Z,29.98
2018-07-20T13:08:12.052Z,31.57
2018-07-20T13:10:40.201Z,30.26
2018-07-20T13:13:08.371Z,28.21
2018-07-20T13:15:36.514Z,30.48
2018-07-20T13:18:04.937Z,29.29
2018-07-20T13:20:33.140Z,28.38
2018-07-20T13:23:01.328Z,29.72
2018-07-20T13:25:29.531Z,28.60
2018-07-20T13:27:57.659Z,28.39
2018-07-20T13:30:25.775Z,29.49
2018-07-20T13:32:53.951Z,28.59
2018-07-20T13:35:22.151Z,28.30
2018-07-20T13:37:50.428Z,28.68
2018-07-20T13:40:18.605Z,28.46
2018-07-20T13:42:46.775Z,28.47
2018-07-20T13:45:14.919Z,28.41
2018-07-20T13:47:43.042Z,27.50
2018-07-20T13:50:11.115Z,28.66
2018-07-20T13:52:39.263Z,30.01
2018-07-20T13:55:07.400Z,29.55
2018-07-20T13:57:35.647Z,27.78
2018-07-20T14:00:04.734Z,27.75
2018-07-20T14:02:32.897Z,28.12
2018-07-20T14:05:01.066Z,28.07
2018-07-20T14:07:29.195Z,28.90
2018-07-20T14:09:57.323Z,28.94
2018-07-20T14:12:26.449Z,29.15
2018-07-20T14:14:54.532Z,29.84
2018-07-20T14:17:22.691Z,30.62
2018-07-20T14:19:50.801Z,29.72
2018-07-20T14:22:19.152Z,30.65
2018-07-20T14:24:47.279Z,28.52
2018-07-20T14:27:15.391Z,27.74
2018-07-20T14:29:43.573Z,28.42
2018-07-20T14:32:11.764Z,28.78
2018-07-20T14:34:39.913Z,29.42
2018-07-20T14:37:08.035Z,29.44
2018-07-20T14:39:36.190Z,28.53
2018-07-20T14:42:04.297Z,28.61
2018-07-20T14:44:32.413Z,27.79
2018-07-20T14:47:00.507Z,27.46
2018-07-20T14:49:28.679Z,29.26
2018-07-20T14:51:56.792Z,28.25
2018-07-20T14:54:24.951Z,29.34
2018-07-20T14:56:53.090Z,28.25
2018-07-20T14:59:21.457Z,29.30
2018-07-20T15:01:49.647Z,31.79
2018-07-20T15:04:17.841Z,29.05
2018-07-20T15:06:46.011Z,30.43
2018-07-20T15:09:14.117Z,30.04
2018-07-20T15:11:42.255Z,31.83
2018-07-20T15:14:10.732Z,32.93
2018-07-20T15:16:38.859Z,31.69
2018-07-20T15:19:07.080Z,30.12
2018-07-20T15:21:35.787Z,30.17
2018-07-20T15:24:03.937Z,32.19
2018-07-20T15:26:32.251Z,32.81
2018-07-20T15:29:00.355Z,30.96
2018-07-20T15:31:28.861Z,30.28
2018-07-20T15:33:57.048Z,30.31
2018-07-20T15:36:25.221Z,30.83
2018-07-20T15:38:54.169Z,30.84
2018-07-20T15:41:22.308Z,29.49
2018-07-20T15:43:50.530Z,30.68
2018-07-20T15:46:18.747Z,31.01
2018-07-20T15:48:46.816Z,31.20
2018-07-20T15:51:14.962Z,31.25
2018-07-20T15:53:43.189Z,29.60
2018-07-20T15:56:11.278Z,30.22
2018-07-20T15:58:39.523Z,32.58
2018-07-20T16:01:07.753Z,31.00
2018-07-20T16:03:35.884Z,29.73
2018-07-20T16:06:04.129Z,31.78
2018-07-20T16:08:32.746Z,34.87
2018-07-20T16:11:00.920Z,34.71
2018-07-20T16:13:29.072Z,29.52
2018-07-20T16:15:57.272Z,33.41
2018-07-20T16:18:25.465Z,34.38
2018-07-20T16:20:53.592Z,31.46
2018-07-20T16:23:21.728Z,32.55
2018-07-20T16:25:50.006Z,33.51
2018-07-20T16:28:18.063Z,33.22
2018-07-20T16:30:46.197Z,33.18
2018-07-20T16:33:14.357Z,32.41
2018-07-20T16:35:42.548Z,31.46
2018-07-20T16:38:10.696Z,31.99
2018-07-20T16:40:38.832Z,32.27
2018-07-20T16:43:07.923Z,32.66
2018-07-20T16:45:36.057Z,31.60
2018-07-20T16:48:04.321Z,31.31
2018-07-20T16:50:32.460Z,32.86
2018-07-20T16:53:00.603Z,32.74
2018-07-20T16:55:28.756Z,32.61
2018-07-20T16:57:56.880Z,34.54
2018-07-20T17:00:25.039Z,33.97
2018-07-20T17:02:53.188Z,33.60
2018-07-20T17:05:21.298Z,34.98
2018-07-20T17:07:49.460Z,33.55
2018-07-20T17:10:17.624Z,34.33
2018-07-20T17:12:45.778Z,34.20
2018-07-20T17:15:13.957Z,33.76
2018-07-20T17:17:42.125Z,34.83
2018-07-20T17:20:10.277Z,32.40
2018-07-20T17:22:38.404Z,32.48
2018-07-20T17:25:06.568Z,34.95
2018-07-20T17:27:34.724Z,34.82
2018-07-20T17:30:02.831Z,35.54
2018-07-20T17:32:30.972Z,33.63
2018-07-20T17:34:59.146Z,34.58
2018-07-20T17:37:27.429Z,34.56
2018-07-20T17:39:55.582Z,35.52
2018-07-20T17:42:23.724Z,32.39
2018-07-20T17:44:51.882Z,32.69
2018-07-20T17:47:20.032Z,34.47
2018-07-20T17:49:48.184Z,34.54
2018-07-20T17:52:16.343Z,35.11
2018-07-20T17:54:44.775Z,35.49
2018-07-20T17:57:12.916Z,35.69
2018-07-20T17:59:41.014Z,37.13
2018-07-20T18:02:09.143Z,36.33
2018-07-20T18:04:37.273Z,36.74
2018-07-20T18:07:05.506Z,37.05
2018-07-20T18:09:33.633Z,35.73
2018-07-20T18:12:01.820Z,36.27
2018-07-20T18:14:29.990Z,36.68
2018-07-20T18:16:58.157Z,36.66
2018-07-20T18:19:26.266Z,36.63
2018-07-20T18:21:54.451Z,36.09
2018-07-20T18:24:22.614Z,36.74
2018-07-20T18:26:50.820Z,36.89
2018-07-20T18:29:18.904Z,37.09
2018-07-20T18:31:47.091Z,37.69
2018-07-20T18:34:15.249Z,37.88
2018-07-20T18:36:43.396Z,38.34
2018-07-20T18:39:12.590Z,38.17
2018-07-20T18:41:41.262Z,38.59
2018-07-20T18:44:09.644Z,39.47
2018-07-20T18:46:38.043Z,39.55
2018-07-20T18:49:06.172Z,39.49
2018-07-20T18:51:34.338Z,39.77
2018-07-20T18:54:03.439Z,39.73
2018-07-20T18:56:31.599Z,39.42
2018-07-20T18:58:59.714Z,40.30
2018-07-20T19:01:28.112Z,41.24
2018-07-20T19:03:56.402Z,41.36
2018-07-20T19:06:24.690Z,43.13
2018-07-20T19:08:52.985Z,43.24
2018-07-20T19:11:21.118Z,43.34
2018-07-20T19:13:49.343Z,42.85
2018-07-20T19:16:17.485Z,43.48
2018-07-20T19:18:45.656Z,44.49
2018-07-20T19:21:13.843Z,43.21
2018-07-20T19:23:42.041Z,44.23
2018-07-20T19:26:10.155Z,43.39
2018-07-20T19:28:38.388Z,44.60
2018-07-20T19:31:06.567Z,45.31
2018-07-20T19:33:34.723Z,46.38
2018-07-20T19:36:02.890Z,48.04
2018-07-20T19:38:30.993Z,48.80
2018-07-20T19:40:59.161Z,50.05
2018-07-20T19:43:27.354Z,49.41
2018-07-20T19:45:55.502Z,47.98
2018-07-20T19:48:23.616Z,48.63
2018-07-20T19:50:51.781Z,48.39
2018-07-20T19:53:19.914Z,50.28
2018-07-20T19:55:48.015Z,49.52
2018-07-20T19:58:16.260Z,48.90
2018-07-20T20:00:45.232Z,49.43
2018-07-20T20:03:13.806Z,49.08
2018-07-20T20:05:41.928Z,48.13
2018-07-20T20:08:10.120Z,47.45
2018-07-20T20:10:38.240Z,50.17
2018-07-20T20:13:06.717Z,50.11
2018-07-20T20:15:35.130Z,51.81
2018-07-20T20:18:03.515Z,52.15
2018-07-20T20:20:31.815Z,52.69
2018-07-20T20:22:59.966Z,54.84
2018-07-20T20:25:28.068Z,53.79
2018-07-20T20:27:56.213Z,53.57
2018-07-20T20:30:24.356Z,53.13
2018-07-20T20:32:52.485Z,54.16
2018-07-20T20:35:20.631Z,52.99
2018-07-20T20:37:48.742Z,53.02
2018-07-20T20:40:16.929Z,51.27
2018-07-20T20:42:45.099Z,51.35
2018-07-20T20:45:13.253Z,52.08
2018-07-20T20:47:41.463Z,50.44
2018-07-20T20:50:09.605Z,51.99
2018-07-20T20:52:37.969Z,51.65
2018-07-20T20:55:06.198Z,56.39
2018-07-20T20:57:34.562Z,59.37
2018-07-20T21:00:02.759Z,60.35
2018-07-20T21:02:31.316Z,60.54
2018-07-20T21:04:59.459Z,60.24
2018-07-20T21:07:27.565Z,61.98
2018-07-20T21:09:56.029Z,61.04
2018-07-20T21:12:24.234Z,59.79
2018-07-20T21:14:52.470Z,59.02
2018-07-20T21:17:20.689Z,58.38
2018-07-20T21:19:48.809Z,58.07
2018-07-20T21:22:16.952Z,56.34
2018-07-20T21:24:45.067Z,57.22
2018-07-20T21:27:13.188Z,58.86
2018-07-20T21:29:41.305Z,58.79
2018-07-20T21:32:09.415Z,58.45
2018-07-20T21:34:37.554Z,58.25
2018-07-20T21:37:05.653Z,58.57
2018-07-20T21:39:33.788Z,58.79
2018-07-20T21:42:01.883Z,58.49
2018-07-20T21:44:30.007Z,59.72
2018-07-20T21:46:58.106Z,60.42
2018-07-20T21:49:26.202Z,59.57
2018-07-20T21:51:54.332Z,60.03
2018-07-20T21:54:22.420Z,59.56
2018-07-20T21:56:50.970Z,59.88
2018-07-20T21:59:19.079Z,60.14
2018-07-20T22:01:47.217Z,61.13
2018-07-20T22:04:15.340Z,62.50
2018-07-20T22:06:43.509Z,63.64
2018-07-20T22:09:12.386Z,63.90
2018-07-20T22:11:40.537Z,62.99
2018-07-20T22:14:08.748Z,62.78
2018-07-20T22:16:36.855Z,62.86
2018-07-20T22:19:05.000Z,62.37
2018-07-20T22:21:33.096Z,62.55
2018-07-20T22:24:01.225Z,62.48
2018-07-20T22:26:29.376Z,61.26
2018-07-20T22:28:57.510Z,62.95
2018-07-20T22:31:25.635Z,63.08
2018-07-20T22:33:53.748Z,62.99
2018-07-20T22:36:21.873Z,62.99
2018-07-20T22:38:49.961Z,63.45
2018-07-20T22:41:18.078Z,64.46
2018-07-20T22:43:46.204Z,65.45
2018-07-20T22:46:14.327Z,65.95
2018-07-20T22:48:42.472Z,65.25
2018-07-20T22:51:10.621Z,64.92
2018-07-20T22:53:38.768Z,64.38
2018-07-20T22:56:06.966Z,65.37
2018-07-20T22:58:35.123Z,65.88
2018-07-20T23:01:03.278Z,65.17
2018-07-20T23:03:31.452Z,64.90
2018-07-20T23:05:59.601Z,64.28
2018-07-20T23:08:27.718Z,63.98
2018-07-20T23:10:55.868Z,62.54
2018-07-20T23:13:24.082Z,63.00
2018-07-20T23:15:52.216Z,64.04
2018-07-20T23:18:20.329Z,66.75
2018-07-20T23:20:48.429Z,66.87
2018-07-20T23:23:16.598Z,66.70
2018-07-20T23:25:44.725Z,66.55
2018-07-20T23:28:12.816Z,66.36
2018-07-20T23:30:40.941Z,66.98
2018-07-20T23:33:09.916Z,67.95
2018-07-20T23:35:38.031Z,67.64
2018-07-20T23:38:06.356Z,66.10
2018-07-20T23:40:34.483Z,65.53
2018-07-20T23:43:02.642Z,65.05
2018-07-20T23:45:30.812Z,65.26
2018-07-20T23:47:58.912Z,65.35
2018-07-20T23:50:27.013Z,65.47
2018-07-20T23:52:55.124Z,65.11
2018-07-20T23:55:23.232Z,65.39
2018-07-20T23:57:51.537Z,66.69
